sensor_id;sensor_type;location;lat;lon;timestamp;P1;durP1;ratioP1;P2;durP2;ratioP2
1140;SDS011;559;48.628;8.924;2023-04-03T00:02:21;78.45;;;73.95;;
1140;SDS011;559;48.628;8.924;2023-04-03T00:04:47;78.20;;;73.70;;
1140;SDS011;559;48.628;8.924;2023-04-03T00:07:14;75.32;;;70.97;;
1140;SDS011;559;48.628;8.924;2023-04-03T00:09:41;75.05;;;70.75;;
1140;SDS011;559;48.628;8.924;2023-04-03T00:12:07;76.60;;;72.30;;
1140;SDS011;559;48.628;8.924;2023-04-03T00:14:34;77.15;;;72.80;;
1140;SDS011;559;48.628;8.924;2023-04-03T00:17:00;80.47;;;76.13;;
1140;SDS011;559;48.628;8.924;2023-04-03T00:19:28;78.40;;;73.80;;
1140;SDS011;559;48.628;8.924;2023-04-03T00:21:55;79.10;;;74.60;;
1140;SDS011;559;48.628;8.924;2023-04-03T00:24:21;77.13;;;72.65;;
1140;SDS011;559;48.628;8.924;2023-04-03T00:26:47;75.07;;;70.78;;
1140;SDS011;559;48.628;8.924;2023-04-03T00:29:14;87.80;;;83.07;;
1140;SDS011;559;48.628;8.924;2023-04-03T00:31:41;80.55;;;76.15;;
1140;SDS011;559;48.628;8.924;2023-04-03T00:34:07;78.72;;;74.30;;
1140;SDS011;559;48.628;8.924;2023-04-03T00:36:35;76.78;;;72.68;;
1140;SDS011;559;48.628;8.924;2023-04-03T00:39:02;75.80;;;71.40;;
1140;SDS011;559;48.628;8.924;2023-04-03T00:41:28;80.55;;;75.95;;
1140;SDS011;559;48.628;8.924;2023-04-03T00:43:55;78.47;;;74.07;;
1140;SDS011;559;48.628;8.924;2023-04-03T00:46:21;78.72;;;74.43;;
1140;SDS011;559;48.628;8.924;2023-04-03T00:48:48;73.15;;;69.10;;
1140;SDS011;559;48.628;8.924;2023-04-03T00:51:16;75.75;;;71.55;;
1140;SDS011;559;48.628;8.924;2023-04-03T00:53:46;71.10;;;67.10;;
1140;SDS011;559;48.628;8.924;2023-04-03T00:56:16;69.75;;;65.85;;
1140;SDS011;559;48.628;8.924;2023-04-03T00:58:45;68.15;;;64.35;;
1140;SDS011;559;48.628;8.924;2023-04-03T01:01:16;73.05;;;69.18;;
1140;SDS011;559;48.628;8.924;2023-04-03T01:03:44;73.13;;;69.22;;
1140;SDS011;559;48.628;8.924;2023-04-03T01:06:11;69.97;;;66.10;;
1140;SDS011;559;48.628;8.924;2023-04-03T01:08:39;69.45;;;65.60;;
1140;SDS011;559;48.628;8.924;2023-04-03T01:11:07;68.07;;;64.38;;
1140;SDS011;559;48.628;8.924;2023-04-03T01:13:33;68.00;;;64.20;;
1140;SDS011;559;48.628;8.924;2023-04-03T01:16:00;74.03;;;69.43;;
1140;SDS011;559;48.628;8.924;2023-04-03T01:18:28;69.95;;;66.15;;
1140;SDS011;559;48.628;8.924;2023-04-03T01:23:47;67.95;;;63.92;;
1140;SDS011;559;48.628;8.924;2023-04-03T01:26:20;71.13;;;67.32;;
1140;SDS011;559;48.628;8.924;2023-04-03T01:28:47;69.43;;;65.32;;
1140;SDS011;559;48.628;8.924;2023-04-03T01:31:15;66.97;;;62.92;;
1140;SDS011;559;48.628;8.924;2023-04-03T01:33:47;68.82;;;65.13;;
1140;SDS011;559;48.628;8.924;2023-04-03T01:36:14;70.53;;;66.53;;
1140;SDS011;559;48.628;8.924;2023-04-03T01:38:42;69.85;;;66.05;;
1140;SDS011;559;48.628;8.924;2023-04-03T01:41:08;66.85;;;63.35;;
1140;SDS011;559;48.628;8.924;2023-04-03T01:43:35;66.25;;;62.55;;
1140;SDS011;559;48.628;8.924;2023-04-03T01:46:01;68.90;;;65.13;;
1140;SDS011;559;48.628;8.924;2023-04-03T01:48:28;68.38;;;64.72;;
1140;SDS011;559;48.628;8.924;2023-04-03T01:50:56;70.97;;;67.13;;
1140;SDS011;559;48.628;8.924;2023-04-03T01:53:22;68.05;;;64.25;;
1140;SDS011;559;48.628;8.924;2023-04-03T01:55:49;72.25;;;68.35;;
1140;SDS011;559;48.628;8.924;2023-04-03T01:58:15;69.22;;;65.63;;
1140;SDS011;559;48.628;8.924;2023-04-03T02:00:41;65.65;;;61.95;;
1140;SDS011;559;48.628;8.924;2023-04-03T02:03:08;67.22;;;63.53;;
1140;SDS011;559;48.628;8.924;2023-04-03T02:05:35;63.50;;;60.00;;
1140;SDS011;559;48.628;8.924;2023-04-03T02:08:03;64.00;;;60.40;;
1140;SDS011;559;48.628;8.924;2023-04-03T02:10:30;65.00;;;61.60;;
1140;SDS011;559;48.628;8.924;2023-04-03T02:12:56;64.10;;;60.80;;
1140;SDS011;559;48.628;8.924;2023-04-03T02:15:23;63.28;;;59.88;;
1140;SDS011;559;48.628;8.924;2023-04-03T02:17:49;65.75;;;62.25;;
1140;SDS011;559;48.628;8.924;2023-04-03T02:20:17;70.05;;;66.30;;
1140;SDS011;559;48.628;8.924;2023-04-03T02:22:43;72.80;;;69.00;;
1140;SDS011;559;48.628;8.924;2023-04-03T02:25:12;70.47;;;66.75;;
1140;SDS011;559;48.628;8.924;2023-04-03T02:27:39;70.97;;;67.30;;
1140;SDS011;559;48.628;8.924;2023-04-03T02:30:06;70.10;;;66.30;;
1140;SDS011;559;48.628;8.924;2023-04-03T02:32:34;66.78;;;63.38;;
1140;SDS011;559;48.628;8.924;2023-04-03T02:35:01;66.22;;;62.83;;
1140;SDS011;559;48.628;8.924;2023-04-03T02:37:27;64.82;;;61.25;;
1140;SDS011;559;48.628;8.924;2023-04-03T02:39:55;61.47;;;58.25;;
1140;SDS011;559;48.628;8.924;2023-04-03T02:42:22;62.88;;;59.67;;
1140;SDS011;559;48.628;8.924;2023-04-03T02:44:49;61.75;;;58.42;;
1140;SDS011;559;48.628;8.924;2023-04-03T02:47:15;61.38;;;58.10;;
1140;SDS011;559;48.628;8.924;2023-04-03T02:49:42;61.75;;;58.55;;
1140;SDS011;559;48.628;8.924;2023-04-03T02:52:10;60.88;;;57.67;;
1140;SDS011;559;48.628;8.924;2023-04-03T02:54:38;59.03;;;56.13;;
1140;SDS011;559;48.628;8.924;2023-04-03T02:57:04;61.25;;;58.05;;
1140;SDS011;559;48.628;8.924;2023-04-03T02:59:34;57.45;;;54.65;;
1140;SDS011;559;48.628;8.924;2023-04-03T03:02:00;55.20;;;52.50;;
1140;SDS011;559;48.628;8.924;2023-04-03T03:04:27;56.17;;;53.20;;
1140;SDS011;559;48.628;8.924;2023-04-03T03:06:53;53.78;;;51.28;;
1140;SDS011;559;48.628;8.924;2023-04-03T03:09:20;55.20;;;52.53;;
1140;SDS011;559;48.628;8.924;2023-04-03T03:11:46;53.60;;;50.97;;
1140;SDS011;559;48.628;8.924;2023-04-03T03:14:13;55.25;;;52.65;;
1140;SDS011;559;48.628;8.924;2023-04-03T03:16:41;53.28;;;50.80;;
1140;SDS011;559;48.628;8.924;2023-04-03T03:19:07;54.00;;;51.60;;
1140;SDS011;559;48.628;8.924;2023-04-03T03:21:34;53.45;;;50.65;;
1140;SDS011;559;48.628;8.924;2023-04-03T03:24:00;53.05;;;50.47;;
1140;SDS011;559;48.628;8.924;2023-04-03T03:26:27;52.15;;;49.85;;
1140;SDS011;559;48.628;8.924;2023-04-03T03:28:53;56.35;;;53.55;;
1140;SDS011;559;48.628;8.924;2023-04-03T03:31:20;52.40;;;49.92;;
1140;SDS011;559;48.628;8.924;2023-04-03T03:33:47;52.17;;;49.67;;
1140;SDS011;559;48.628;8.924;2023-04-03T03:36:14;53.40;;;50.88;;
1140;SDS011;559;48.628;8.924;2023-04-03T03:38:40;53.47;;;50.97;;
1140;SDS011;559;48.628;8.924;2023-04-03T03:41:07;52.83;;;50.42;;
1140;SDS011;559;48.628;8.924;2023-04-03T03:43:33;52.75;;;50.28;;
1140;SDS011;559;48.628;8.924;2023-04-03T03:46:00;54.25;;;51.75;;
1140;SDS011;559;48.628;8.924;2023-04-03T03:48:26;54.65;;;51.97;;
1140;SDS011;559;48.628;8.924;2023-04-03T03:50:54;57.00;;;53.90;;
1140;SDS011;559;48.628;8.924;2023-04-03T03:53:21;56.13;;;53.13;;
1140;SDS011;559;48.628;8.924;2023-04-03T03:55:47;56.72;;;53.53;;
1140;SDS011;559;48.628;8.924;2023-04-03T03:58:14;58.58;;;55.47;;
1140;SDS011;559;48.628;8.924;2023-04-03T04:00:40;95.93;;;88.38;;
1140;SDS011;559;48.628;8.924;2023-04-03T04:03:07;61.33;;;58.22;;
1140;SDS011;559;48.628;8.924;2023-04-03T04:05:33;62.92;;;59.63;;
1140;SDS011;559;48.628;8.924;2023-04-03T04:08:01;58.70;;;55.70;;
1140;SDS011;559;48.628;8.924;2023-04-03T04:10:27;58.22;;;55.22;;
1140;SDS011;559;48.628;8.924;2023-04-03T04:12:54;59.40;;;56.40;;
1140;SDS011;559;48.628;8.924;2023-04-03T04:15:20;59.20;;;56.20;;
1140;SDS011;559;48.628;8.924;2023-04-03T04:17:48;60.78;;;57.45;;
1140;SDS011;559;48.628;8.924;2023-04-03T04:20:14;61.15;;;57.75;;
1140;SDS011;559;48.628;8.924;2023-04-03T04:22:41;58.97;;;55.88;;
1140;SDS011;559;48.628;8.924;2023-04-03T04:25:09;59.35;;;56.10;;
1140;SDS011;559;48.628;8.924;2023-04-03T04:27:36;56.67;;;53.53;;
1140;SDS011;559;48.628;8.924;2023-04-03T04:30:03;57.58;;;54.45;;
1140;SDS011;559;48.628;8.924;2023-04-03T04:32:30;56.65;;;53.75;;
1140;SDS011;559;48.628;8.924;2023-04-03T04:34:56;58.85;;;55.85;;
1140;SDS011;559;48.628;8.924;2023-04-03T04:37:23;56.75;;;53.85;;
1140;SDS011;559;48.628;8.924;2023-04-03T04:39:49;56.78;;;53.88;;
1140;SDS011;559;48.628;8.924;2023-04-03T04:42:17;58.33;;;55.42;;
1140;SDS011;559;48.628;8.924;2023-04-03T04:44:44;57.42;;;54.42;;
1140;SDS011;559;48.628;8.924;2023-04-03T04:47:10;56.25;;;53.45;;
1140;SDS011;559;48.628;8.924;2023-04-03T04:49:37;50.92;;;48.53;;
1140;SDS011;559;48.628;8.924;2023-04-03T04:52:03;52.78;;;50.28;;
1140;SDS011;559;48.628;8.924;2023-04-03T04:54:31;52.58;;;49.53;;
1140;SDS011;559;48.628;8.924;2023-04-03T04:56:58;51.75;;;49.25;;
1140;SDS011;559;48.628;8.924;2023-04-03T04:59:25;50.80;;;48.40;;
1140;SDS011;559;48.628;8.924;2023-04-03T05:01:52;50.95;;;48.42;;
1140;SDS011;559;48.628;8.924;2023-04-03T05:04:18;51.40;;;49.10;;
1140;SDS011;559;48.628;8.924;2023-04-03T05:06:45;52.20;;;49.80;;
1140;SDS011;559;48.628;8.924;2023-04-03T05:09:12;52.50;;;49.90;;
1140;SDS011;559;48.628;8.924;2023-04-03T05:11:38;52.70;;;50.20;;
1140;SDS011;559;48.628;8.924;2023-04-03T05:14:05;53.22;;;50.60;;
1140;SDS011;559;48.628;8.924;2023-04-03T05:16:34;51.88;;;49.42;;
1140;SDS011;559;48.628;8.924;2023-04-03T05:19:00;52.75;;;50.00;;
1140;SDS011;559;48.628;8.924;2023-04-03T05:21:27;53.25;;;50.85;;
1140;SDS011;559;48.628;8.924;2023-04-03T05:23:57;52.42;;;49.97;;
1140;SDS011;559;48.628;8.924;2023-04-03T05:26:23;53.70;;;51.17;;
1140;SDS011;559;48.628;8.924;2023-04-03T05:28:50;56.35;;;53.65;;
1140;SDS011;559;48.628;8.924;2023-04-03T05:31:17;54.53;;;52.03;;
1140;SDS011;559;48.628;8.924;2023-04-03T05:33:44;53.83;;;51.35;;
1140;SDS011;559;48.628;8.924;2023-04-03T05:36:11;53.55;;;51.15;;
1140;SDS011;559;48.628;8.924;2023-04-03T05:38:38;51.20;;;49.10;;
1140;SDS011;559;48.628;8.924;2023-04-03T05:41:05;47.33;;;45.33;;
1140;SDS011;559;48.628;8.924;2023-04-03T05:43:31;44.33;;;42.80;;
1140;SDS011;559;48.628;8.924;2023-04-03T05:45:59;46.10;;;44.28;;
1140;SDS011;559;48.628;8.924;2023-04-03T05:48:26;41.83;;;40.42;;
1140;SDS011;559;48.628;8.924;2023-04-03T05:50:53;38.05;;;36.85;;
1140;SDS011;559;48.628;8.924;2023-04-03T05:53:21;35.70;;;34.28;;
1140;SDS011;559;48.628;8.924;2023-04-03T05:55:48;33.35;;;32.35;;
1140;SDS011;559;48.628;8.924;2023-04-03T05:58:14;31.92;;;30.98;;
1140;SDS011;559;48.628;8.924;2023-04-03T06:00:41;27.85;;;27.05;;
1140;SDS011;559;48.628;8.924;2023-04-03T06:03:07;28.35;;;27.55;;
1140;SDS011;559;48.628;8.924;2023-04-03T06:05:34;25.70;;;24.98;;
1140;SDS011;559;48.628;8.924;2023-04-03T06:08:02;22.00;;;21.30;;
1140;SDS011;559;48.628;8.924;2023-04-03T06:10:29;22.80;;;22.08;;
1140;SDS011;559;48.628;8.924;2023-04-03T06:12:55;17.92;;;17.33;;
1140;SDS011;559;48.628;8.924;2023-04-03T06:15:22;13.88;;;13.40;;
1140;SDS011;559;48.628;8.924;2023-04-03T06:17:49;13.98;;;13.48;;
1140;SDS011;559;48.628;8.924;2023-04-03T06:20:16;15.82;;;15.40;;
1140;SDS011;559;48.628;8.924;2023-04-03T06:22:42;16.15;;;15.55;;
1140;SDS011;559;48.628;8.924;2023-04-03T06:25:10;17.52;;;17.00;;
1140;SDS011;559;48.628;8.924;2023-04-03T06:27:37;19.88;;;19.27;;
1140;SDS011;559;48.628;8.924;2023-04-03T06:30:04;20.73;;;20.13;;
1140;SDS011;559;48.628;8.924;2023-04-03T06:32:31;14.05;;;13.57;;
1140;SDS011;559;48.628;8.924;2023-04-03T06:34:58;16.17;;;15.65;;
1140;SDS011;559;48.628;8.924;2023-04-03T06:37:25;16.85;;;16.25;;
1140;SDS011;559;48.628;8.924;2023-04-03T06:39:53;21.90;;;21.20;;
1140;SDS011;559;48.628;8.924;2023-04-03T06:42:22;30.08;;;29.17;;
1140;SDS011;559;48.628;8.924;2023-04-03T06:44:48;29.88;;;28.83;;
1140;SDS011;559;48.628;8.924;2023-04-03T06:47:15;40.17;;;38.55;;
1140;SDS011;559;48.628;8.924;2023-04-03T06:49:42;37.85;;;36.65;;
1140;SDS011;559;48.628;8.924;2023-04-03T06:52:09;42.17;;;40.78;;
1140;SDS011;559;48.628;8.924;2023-04-03T06:54:37;41.05;;;39.65;;
1140;SDS011;559;48.628;8.924;2023-04-03T06:57:04;38.55;;;37.15;;
1140;SDS011;559;48.628;8.924;2023-04-03T06:59:31;36.90;;;35.80;;
1140;SDS011;559;48.628;8.924;2023-04-03T07:01:58;38.95;;;37.58;;
1140;SDS011;559;48.628;8.924;2023-04-03T07:04:24;39.05;;;37.85;;
1140;SDS011;559;48.628;8.924;2023-04-03T07:06:51;40.75;;;39.40;;
1140;SDS011;559;48.628;8.924;2023-04-03T07:09:18;38.80;;;37.50;;
1140;SDS011;559;48.628;8.924;2023-04-03T07:11:45;38.65;;;37.35;;
1140;SDS011;559;48.628;8.924;2023-04-03T07:14:11;38.70;;;37.40;;
1140;SDS011;559;48.628;8.924;2023-04-03T07:16:39;39.15;;;37.75;;
1140;SDS011;559;48.628;8.924;2023-04-03T07:19:05;40.20;;;39.00;;
1140;SDS011;559;48.628;8.924;2023-04-03T07:21:33;38.60;;;37.33;;
1140;SDS011;559;48.628;8.924;2023-04-03T07:24:00;40.35;;;38.95;;
1140;SDS011;559;48.628;8.924;2023-04-03T07:26:27;42.63;;;41.22;;
1140;SDS011;559;48.628;8.924;2023-04-03T07:28:53;39.72;;;38.38;;
1140;SDS011;559;48.628;8.924;2023-04-03T07:31:20;38.60;;;37.13;;
1140;SDS011;559;48.628;8.924;2023-04-03T07:33:47;32.90;;;31.83;;
1140;SDS011;559;48.628;8.924;2023-04-03T07:36:15;37.92;;;36.72;;
1140;SDS011;559;48.628;8.924;2023-04-03T07:38:42;34.47;;;33.35;;
1140;SDS011;559;48.628;8.924;2023-04-03T07:41:10;41.00;;;39.63;;
1140;SDS011;559;48.628;8.924;2023-04-03T07:43:38;44.88;;;43.35;;
1140;SDS011;559;48.628;8.924;2023-04-03T07:46:05;37.75;;;36.70;;
1140;SDS011;559;48.628;8.924;2023-04-03T07:48:32;32.88;;;31.88;;
1140;SDS011;559;48.628;8.924;2023-04-03T07:51:01;39.22;;;37.92;;
1140;SDS011;559;48.628;8.924;2023-04-03T07:53:28;33.25;;;32.25;;
1140;SDS011;559;48.628;8.924;2023-04-03T07:55:56;33.22;;;32.22;;
1140;SDS011;559;48.628;8.924;2023-04-03T07:58:22;23.02;;;22.33;;
1140;SDS011;559;48.628;8.924;2023-04-03T08:00:49;24.35;;;23.55;;
1140;SDS011;559;48.628;8.924;2023-04-03T08:03:15;28.00;;;27.10;;
1140;SDS011;559;48.628;8.924;2023-04-03T08:05:43;27.90;;;27.00;;
1140;SDS011;559;48.628;8.924;2023-04-03T08:08:13;34.47;;;33.28;;
1140;SDS011;559;48.628;8.924;2023-04-03T08:10:41;41.78;;;40.38;;
1140;SDS011;559;48.628;8.924;2023-04-03T08:13:08;37.97;;;36.78;;
1140;SDS011;559;48.628;8.924;2023-04-03T08:15:35;30.30;;;29.40;;
1140;SDS011;559;48.628;8.924;2023-04-03T08:18:02;20.40;;;19.60;;
1140;SDS011;559;48.628;8.924;2023-04-03T08:20:29;22.90;;;21.92;;
1140;SDS011;559;48.628;8.924;2023-04-03T08:22:55;18.95;;;18.30;;
1140;SDS011;559;48.628;8.924;2023-04-03T08:25:23;19.20;;;18.60;;
1140;SDS011;559;48.628;8.924;2023-04-03T08:27:49;21.33;;;20.52;;
1140;SDS011;559;48.628;8.924;2023-04-03T08:30:16;23.55;;;22.83;;
1140;SDS011;559;48.628;8.924;2023-04-03T08:32:43;16.38;;;15.77;;
1140;SDS011;559;48.628;8.924;2023-04-03T08:35:09;19.08;;;18.38;;
1140;SDS011;559;48.628;8.924;2023-04-03T08:37:36;19.63;;;18.83;;
1140;SDS011;559;48.628;8.924;2023-04-03T08:40:04;32.25;;;30.33;;
1140;SDS011;559;48.628;8.924;2023-04-03T08:42:38;42.17;;;39.13;;
1140;SDS011;559;48.628;8.924;2023-04-03T08:45:09;23.88;;;22.98;;
1140;SDS011;559;48.628;8.924;2023-04-03T08:47:37;30.17;;;28.92;;
1140;SDS011;559;48.628;8.924;2023-04-03T08:50:06;18.85;;;18.17;;
1140;SDS011;559;48.628;8.924;2023-04-03T08:52:38;19.17;;;18.58;;
1140;SDS011;559;48.628;8.924;2023-04-03T08:55:07;13.98;;;13.48;;
1140;SDS011;559;48.628;8.924;2023-04-03T08:57:44;20.38;;;19.58;;
1140;SDS011;559;48.628;8.924;2023-04-03T09:00:16;23.20;;;22.27;;
1140;SDS011;559;48.628;8.924;2023-04-03T09:02:44;27.67;;;26.65;;
1140;SDS011;559;48.628;8.924;2023-04-03T09:05:13;35.50;;;34.15;;
1140;SDS011;559;48.628;8.924;2023-04-03T09:07:42;34.45;;;33.35;;
1140;SDS011;559;48.628;8.924;2023-04-03T09:10:10;23.10;;;22.35;;
1140;SDS011;559;48.628;8.924;2023-04-03T09:12:39;27.08;;;26.17;;
1140;SDS011;559;48.628;8.924;2023-04-03T09:15:17;31.67;;;30.63;;
1140;SDS011;559;48.628;8.924;2023-04-03T09:17:48;32.40;;;31.40;;
1140;SDS011;559;48.628;8.924;2023-04-03T09:20:21;26.98;;;26.08;;
1140;SDS011;559;48.628;8.924;2023-04-03T09:22:51;29.95;;;28.80;;
1140;SDS011;559;48.628;8.924;2023-04-03T09:25:20;18.40;;;17.65;;
1140;SDS011;559;48.628;8.924;2023-04-03T09:27:47;13.10;;;12.35;;
1140;SDS011;559;48.628;8.924;2023-04-03T09:30:16;12.68;;;12.18;;
1140;SDS011;559;48.628;8.924;2023-04-03T09:32:45;13.52;;;13.02;;
1140;SDS011;559;48.628;8.924;2023-04-03T09:35:16;7.68;;;7.38;;
1140;SDS011;559;48.628;8.924;2023-04-03T09:37:48;14.52;;;13.93;;
1140;SDS011;559;48.628;8.924;2023-04-03T09:43:19;19.50;;;18.60;;
1140;SDS011;559;48.628;8.924;2023-04-03T09:45:52;15.07;;;14.57;;
1140;SDS011;559;48.628;8.924;2023-04-03T09:48:19;19.17;;;18.58;;
1140;SDS011;559;48.628;8.924;2023-04-03T09:50:55;15.85;;;15.25;;
1140;SDS011;559;48.628;8.924;2023-04-03T09:53:32;29.90;;;29.00;;
1140;SDS011;559;48.628;8.924;2023-04-03T09:56:01;37.97;;;36.58;;
1140;SDS011;559;48.628;8.924;2023-04-03T09:58:30;36.40;;;35.30;;
1140;SDS011;559;48.628;8.924;2023-04-03T10:01:01;43.15;;;41.75;;
1140;SDS011;559;48.628;8.924;2023-04-03T10:03:29;45.30;;;43.90;;
1140;SDS011;559;48.628;8.924;2023-04-03T10:05:59;43.78;;;42.58;;
1140;SDS011;559;48.628;8.924;2023-04-03T10:08:27;49.38;;;47.78;;
1140;SDS011;559;48.628;8.924;2023-04-03T10:11:05;53.30;;;51.70;;
1140;SDS011;559;48.628;8.924;2023-04-03T10:13:55;45.13;;;43.72;;
1140;SDS011;559;48.628;8.924;2023-04-03T10:16:26;47.95;;;46.63;;
1140;SDS011;559;48.628;8.924;2023-04-03T10:21:57;47.25;;;45.88;;
1140;SDS011;559;48.628;8.924;2023-04-03T10:24:27;30.02;;;29.13;;
1140;SDS011;559;48.628;8.924;2023-04-03T10:26:57;34.55;;;33.47;;
1140;SDS011;559;48.628;8.924;2023-04-03T10:29:32;33.38;;;32.28;;
1140;SDS011;559;48.628;8.924;2023-04-03T10:32:14;30.33;;;29.48;;
1140;SDS011;559;48.628;8.924;2023-04-03T10:34:49;21.55;;;20.85;;
1140;SDS011;559;48.628;8.924;2023-04-03T10:37:20;18.27;;;17.58;;
1140;SDS011;559;48.628;8.924;2023-04-03T10:39:50;10.60;;;10.15;;
1140;SDS011;559;48.628;8.924;2023-04-03T10:42:23;10.18;;;9.68;;
1140;SDS011;559;48.628;8.924;2023-04-03T10:44:59;8.85;;;8.55;;
1140;SDS011;559;48.628;8.924;2023-04-03T10:47:32;10.18;;;9.77;;
1140;SDS011;559;48.628;8.924;2023-04-03T10:50:06;8.07;;;7.57;;
1140;SDS011;559;48.628;8.924;2023-04-03T10:52:43;12.88;;;12.15;;
1140;SDS011;559;48.628;8.924;2023-04-03T10:55:18;8.90;;;8.43;;
1140;SDS011;559;48.628;8.924;2023-04-03T10:57:52;15.45;;;14.85;;
1140;SDS011;559;48.628;8.924;2023-04-03T11:00:21;27.42;;;26.58;;
1140;SDS011;559;48.628;8.924;2023-04-03T11:03:05;25.20;;;24.27;;
1140;SDS011;559;48.628;8.924;2023-04-03T11:05:34;40.95;;;39.75;;
1140;SDS011;559;48.628;8.924;2023-04-03T11:08:04;32.65;;;31.70;;
1140;SDS011;559;48.628;8.924;2023-04-03T11:10:37;30.88;;;29.88;;
1140;SDS011;559;48.628;8.924;2023-04-03T11:13:08;29.10;;;28.20;;
1140;SDS011;559;48.628;8.924;2023-04-03T11:15:38;28.33;;;27.42;;
1140;SDS011;559;48.628;8.924;2023-04-03T11:18:08;31.40;;;30.58;;
1140;SDS011;559;48.628;8.924;2023-04-03T11:20:37;23.13;;;22.42;;
1140;SDS011;559;48.628;8.924;2023-04-03T11:23:06;10.50;;;9.80;;
1140;SDS011;559;48.628;8.924;2023-04-03T11:25:36;5.65;;;5.45;;
1140;SDS011;559;48.628;8.924;2023-04-03T11:28:04;8.43;;;7.70;;
1140;SDS011;559;48.628;8.924;2023-04-03T11:30:32;17.00;;;16.20;;
1140;SDS011;559;48.628;8.924;2023-04-03T11:35:50;26.88;;;25.88;;
1140;SDS011;559;48.628;8.924;2023-04-03T11:38:21;38.17;;;36.97;;
1140;SDS011;559;48.628;8.924;2023-04-03T11:40:51;21.73;;;21.02;;
1140;SDS011;559;48.628;8.924;2023-04-03T11:43:21;20.60;;;19.67;;
1140;SDS011;559;48.628;8.924;2023-04-03T11:45:51;19.10;;;18.50;;
1140;SDS011;559;48.628;8.924;2023-04-03T12:09:29;30.85;;;29.95;;
1140;SDS011;559;48.628;8.924;2023-04-03T12:11:59;24.17;;;23.38;;
1140;SDS011;559;48.628;8.924;2023-04-03T12:14:26;19.40;;;18.42;;
1140;SDS011;559;48.628;8.924;2023-04-03T12:16:54;16.40;;;15.80;;
1140;SDS011;559;48.628;8.924;2023-04-03T12:19:32;13.93;;;13.45;;
1140;SDS011;559;48.628;8.924;2023-04-03T12:22:13;15.50;;;14.60;;
1140;SDS011;559;48.628;8.924;2023-04-03T12:24:41;11.35;;;10.77;;
1140;SDS011;559;48.628;8.924;2023-04-03T12:29:56;7.00;;;6.70;;
1140;SDS011;559;48.628;8.924;2023-04-03T12:35:29;8.32;;;7.60;;
1140;SDS011;559;48.628;8.924;2023-04-03T12:38:13;4.43;;;4.00;;
1140;SDS011;559;48.628;8.924;2023-04-03T12:40:47;5.03;;;4.63;;
1140;SDS011;559;48.628;8.924;2023-04-03T12:43:26;4.38;;;4.07;;
1140;SDS011;559;48.628;8.924;2023-04-03T12:46:03;5.50;;;5.28;;
1140;SDS011;559;48.628;8.924;2023-04-03T12:48:31;6.68;;;6.18;;
1140;SDS011;559;48.628;8.924;2023-04-03T12:50:58;6.80;;;6.50;;
1140;SDS011;559;48.628;8.924;2023-04-03T12:53:27;6.72;;;6.53;;
1140;SDS011;559;48.628;8.924;2023-04-03T12:55:55;4.90;;;4.60;;
1140;SDS011;559;48.628;8.924;2023-04-03T12:58:23;4.50;;;4.20;;
1140;SDS011;559;48.628;8.924;2023-04-03T13:00:58;7.10;;;6.90;;
1140;SDS011;559;48.628;8.924;2023-04-03T13:03:27;6.47;;;6.18;;
1140;SDS011;559;48.628;8.924;2023-04-03T13:05:54;6.95;;;6.55;;
1140;SDS011;559;48.628;8.924;2023-04-03T13:08:21;6.18;;;5.78;;
1140;SDS011;559;48.628;8.924;2023-04-03T13:10:54;8.63;;;8.23;;
1140;SDS011;559;48.628;8.924;2023-04-03T13:13:22;12.43;;;11.82;;
1140;SDS011;559;48.628;8.924;2023-04-03T13:15:49;6.13;;;5.82;;
1140;SDS011;559;48.628;8.924;2023-04-03T13:18:23;5.18;;;4.85;;
1140;SDS011;559;48.628;8.924;2023-04-03T13:20:51;5.55;;;5.15;;
1140;SDS011;559;48.628;8.924;2023-04-03T13:23:18;7.88;;;7.60;;
1140;SDS011;559;48.628;8.924;2023-04-03T13:25:45;4.82;;;4.63;;
1140;SDS011;559;48.628;8.924;2023-04-03T13:28:14;5.38;;;5.15;;
1140;SDS011;559;48.628;8.924;2023-04-03T13:30:53;4.05;;;3.65;;
1140;SDS011;559;48.628;8.924;2023-04-03T13:33:23;2.60;;;2.40;;
1140;SDS011;559;48.628;8.924;2023-04-03T13:35:54;2.75;;;2.55;;
1140;SDS011;559;48.628;8.924;2023-04-03T13:38:22;4.65;;;4.35;;
1140;SDS011;559;48.628;8.924;2023-04-03T13:40:51;4.38;;;4.05;;
1140;SDS011;559;48.628;8.924;2023-04-03T13:43:21;3.70;;;3.50;;
1140;SDS011;559;48.628;8.924;2023-04-03T13:45:53;3.85;;;3.55;;
1140;SDS011;559;48.628;8.924;2023-04-03T13:48:22;3.47;;;3.30;;
1140;SDS011;559;48.628;8.924;2023-04-03T13:50:53;3.45;;;2.38;;
1140;SDS011;559;48.628;8.924;2023-04-03T13:53:23;2.88;;;2.67;;
1140;SDS011;559;48.628;8.924;2023-04-03T13:55:55;2.40;;;2.30;;
1140;SDS011;559;48.628;8.924;2023-04-03T13:58:26;2.90;;;2.70;;
1140;SDS011;559;48.628;8.924;2023-04-03T14:00:55;3.72;;;2.35;;
1140;SDS011;559;48.628;8.924;2023-04-03T14:03:24;2.20;;;2.10;;
1140;SDS011;559;48.628;8.924;2023-04-03T14:05:52;2.90;;;2.70;;
1140;SDS011;559;48.628;8.924;2023-04-03T14:08:18;2.42;;;2.33;;
1140;SDS011;559;48.628;8.924;2023-04-03T14:10:46;2.60;;;2.40;;
1140;SDS011;559;48.628;8.924;2023-04-03T14:13:14;3.20;;;2.72;;
1140;SDS011;559;48.628;8.924;2023-04-03T14:15:44;2.50;;;2.30;;
1140;SDS011;559;48.628;8.924;2023-04-03T14:18:13;3.17;;;2.97;;
1140;SDS011;559;48.628;8.924;2023-04-03T14:20:41;2.60;;;2.40;;
1140;SDS011;559;48.628;8.924;2023-04-03T14:23:08;2.83;;;2.63;;
1140;SDS011;559;48.628;8.924;2023-04-03T14:25:35;3.25;;;3.00;;
1140;SDS011;559;48.628;8.924;2023-04-03T14:28:06;3.30;;;3.00;;
1140;SDS011;559;48.628;8.924;2023-04-03T14:30:40;3.45;;;3.15;;
1140;SDS011;559;48.628;8.924;2023-04-03T14:33:10;2.10;;;2.00;;
1140;SDS011;559;48.628;8.924;2023-04-03T14:35:40;12.73;;;6.85;;
1140;SDS011;559;48.628;8.924;2023-04-03T14:38:11;2.65;;;2.55;;
1140;SDS011;559;48.628;8.924;2023-04-03T14:40:48;3.42;;;2.65;;
1140;SDS011;559;48.628;8.924;2023-04-03T14:43:14;2.72;;;2.35;;
1140;SDS011;559;48.628;8.924;2023-04-03T14:45:41;3.53;;;3.22;;
1140;SDS011;559;48.628;8.924;2023-04-03T14:48:10;2.47;;;2.28;;
1140;SDS011;559;48.628;8.924;2023-04-03T14:50:43;2.40;;;2.20;;
1140;SDS011;559;48.628;8.924;2023-04-03T14:53:10;2.92;;;2.50;;
1140;SDS011;559;48.628;8.924;2023-04-03T14:55:37;2.50;;;2.30;;
1140;SDS011;559;48.628;8.924;2023-04-03T14:58:04;2.30;;;2.20;;
1140;SDS011;559;48.628;8.924;2023-04-03T15:00:31;2.85;;;2.65;;
1140;SDS011;559;48.628;8.924;2023-04-03T15:02:57;3.47;;;2.85;;
1140;SDS011;559;48.628;8.924;2023-04-03T15:05:25;2.10;;;2.00;;
1140;SDS011;559;48.628;8.924;2023-04-03T15:07:52;2.88;;;2.53;;
1140;SDS011;559;48.628;8.924;2023-04-03T15:10:21;2.63;;;2.42;;
1140;SDS011;559;48.628;8.924;2023-04-03T15:12:49;3.45;;;3.15;;
1140;SDS011;559;48.628;8.924;2023-04-03T15:15:17;3.78;;;2.55;;
1140;SDS011;559;48.628;8.924;2023-04-03T15:17:45;2.70;;;2.60;;
1140;SDS011;559;48.628;8.924;2023-04-03T15:20:14;3.80;;;2.60;;
1140;SDS011;559;48.628;8.924;2023-04-03T15:22:44;2.97;;;2.78;;
1140;SDS011;559;48.628;8.924;2023-04-03T15:25:11;4.20;;;2.60;;
1140;SDS011;559;48.628;8.924;2023-04-03T15:27:37;5.10;;;2.90;;
1140;SDS011;559;48.628;8.924;2023-04-03T15:30:06;2.88;;;2.67;;
1140;SDS011;559;48.628;8.924;2023-04-03T15:32:34;2.75;;;2.55;;
1140;SDS011;559;48.628;8.924;2023-04-03T15:35:00;2.50;;;2.30;;
1140;SDS011;559;48.628;8.924;2023-04-03T15:37:27;3.45;;;2.78;;
1140;SDS011;559;48.628;8.924;2023-04-03T15:39:55;3.45;;;2.72;;
1140;SDS011;559;48.628;8.924;2023-04-03T15:42:21;2.33;;;2.22;;
1140;SDS011;559;48.628;8.924;2023-04-03T15:44:48;1.90;;;1.70;;
1140;SDS011;559;48.628;8.924;2023-04-03T15:47:15;2.38;;;1.85;;
1140;SDS011;559;48.628;8.924;2023-04-03T15:49:41;2.00;;;1.70;;
1140;SDS011;559;48.628;8.924;2023-04-03T15:52:08;2.63;;;1.77;;
1140;SDS011;559;48.628;8.924;2023-04-03T15:54:34;4.07;;;2.42;;